Time;durP1;ratioP1;P1;durP2;ratioP2;P2;SDS_P1;SDS_P2;PMS_P1;PMS_P2;Temp;Humidity;BMP_temperature;BMP_pressure;BME280_temperature;BME280_humidity;BME280_pressure;Samples;Min_cycle;Max_cycle;Signal;HPM_P1;HPM_P2
2022/10/05 00:01:21;;;;;;;14.00;9.32;;;15.60;99.90;;;;;;6005671;23;20123;-93
2022/10/05 00:03:47;;;;;;;14.43;9.50;;;15.60;99.90;;;;;;6006995;23;20100;-92
2022/10/05 00:06:13;;;;;;;13.88;8.80;;;15.60;99.90;;;;;;6029527;23;20036;-94
2022/10/05 00:08:39;;;;;;;12.10;8.77;;;15.60;99.90;;;;;;6007619;23;20019;-91
2022/10/05 00:11:11;;;;;;;13.20;8.85;;;15.60;99.90;;;;;;6029667;23;20016;-93
2022/10/05 00:13:39;;;;;;;13.55;8.55;;;15.60;99.90;;;;;;6005569;23;20016;-93
2022/10/05 00:16:10;;;;;;;13.55;9.68;;;15.60;99.90;;;;;;6004220;23;20090;-90
2022/10/05 00:18:37;;;;;;;12.25;9.02;;;15.60;99.90;;;;;;6002950;23;20438;-91
2022/10/05 00:21:23;;;;;;;12.95;8.98;;;15.60;99.90;;;;;;6003134;23;20315;-93
2022/10/05 00:23:49;;;;;;;12.38;8.75;;;15.60;99.90;;;;;;6002859;23;20094;-91
2022/10/05 00:26:21;;;;;;;12.40;8.73;;;15.50;99.90;;;;;;5980406;23;20019;-90
2022/10/05 00:28:47;;;;;;;12.57;8.90;;;15.60;99.90;;;;;;6002633;23;20315;-92
2022/10/05 00:31:22;;;;;;;12.25;8.30;;;15.50;99.90;;;;;;6003709;23;20019;-91
2022/10/05 00:33:48;;;;;;;12.88;8.40;;;15.50;99.90;;;;;;6002716;23;20022;-91
2022/10/05 00:36:14;;;;;;;12.45;8.82;;;15.50;99.90;;;;;;6005710;23;20040;-92
2022/10/05 00:38:40;;;;;;;12.82;8.80;;;15.50;99.90;;;;;;6002415;23;20026;-91
2022/10/05 00:41:14;;;;;;;12.30;8.95;;;15.60;99.90;;;;;;6002522;23;20022;-91
2022/10/05 00:43:43;;;;;;;13.27;8.98;;;15.50;99.90;;;;;;6003042;23;20334;-92
2022/10/05 00:46:43;;;;;;;13.18;8.77;;;15.50;99.90;;;;;;6003005;23;20095;-94
2022/10/05 00:49:25;;;;;;;12.30;8.80;;;15.50;99.90;;;;;;6002414;23;20023;-94
2022/10/05 00:52:02;;;;;;;11.95;8.13;;;15.50;99.90;;;;;;6001975;23;20016;-91
2022/10/05 00:54:48;;;;;;;12.75;8.40;;;15.50;99.90;;;;;;6004284;23;20016;-93
2022/10/05 00:57:36;;;;;;;13.63;8.13;;;15.50;99.90;;;;;;6004447;23;20053;-92
2022/10/05 01:00:11;;;;;;;12.60;8.80;;;15.50;99.90;;;;;;6006774;23;20016;-90
2022/10/05 01:03:00;;;;;;;11.82;8.57;;;15.50;99.90;;;;;;6005809;23;20028;-93
2022/10/05 01:05:40;;;;;;;12.48;8.38;;;15.50;99.90;;;;;;6003532;23;20035;-92
2022/10/05 01:08:39;;;;;;;12.43;8.70;;;15.50;99.90;;;;;;6005011;23;20173;-94
2022/10/05 01:11:17;;;;;;;12.75;8.65;;;15.50;99.90;;;;;;6003829;23;20080;-93
2022/10/05 01:14:02;;;;;;;13.27;9.18;;;15.50;99.90;;;;;;6004798;23;20050;-93
2022/10/05 01:16:48;;;;;;;12.48;9.15;;;15.50;99.90;;;;;;6005791;23;20220;-92
2022/10/05 01:19:39;;;;;;;11.35;9.00;;;15.60;99.90;;;;;;5963743;23;20051;-92
2022/10/05 01:22:05;;;;;;;14.00;8.93;;;15.50;99.90;;;;;;5951414;23;20176;-92
2022/10/05 01:24:47;;;;;;;11.95;8.55;;;15.50;99.90;;;;;;6003795;23;20442;-91
2022/10/05 01:27:31;;;;;;;12.13;9.45;;;15.50;99.90;;;;;;6007425;23;20090;-93
2022/10/05 01:30:23;;;;;;;11.68;8.52;;;15.50;99.90;;;;;;5980826;23;20016;-91
2022/10/05 01:33:00;;;;;;;12.38;8.80;;;15.50;99.90;;;;;;6000414;23;20015;-91
2022/10/05 01:35:53;;;;;;;12.63;9.05;;;15.50;99.90;;;;;;6008245;23;20015;-91
2022/10/05 01:38:47;;;;;;;15.13;9.23;;;15.50;99.90;;;;;;6007266;23;20086;-93
2022/10/05 01:41:30;;;;;;;13.52;9.20;;;15.50;99.90;;;;;;6030412;23;20367;-93
2022/10/05 01:44:08;;;;;;;13.50;8.82;;;15.50;99.90;;;;;;6028920;23;20023;-94
2022/10/05 01:46:47;;;;;;;12.75;9.27;;;15.50;99.90;;;;;;6009190;23;20020;-93
2022/10/05 01:49:34;;;;;;;12.10;9.18;;;15.50;99.90;;;;;;6008203;23;20019;-94
2022/10/05 01:52:11;;;;;;;15.25;9.93;;;15.50;99.90;;;;;;6032323;23;20016;-94
2022/10/05 01:55:13;;;;;;;12.88;9.48;;;15.40;99.90;;;;;;6008393;23;20020;-95
2022/10/05 01:57:38;;;;;;;;;;;15.40;99.90;;;;;;5985480;23;20084;-94
2022/10/05 02:00:13;;;;;;;16.25;10.75;;;15.30;99.90;;;;;;5983875;23;20347;-92
2022/10/05 02:02:51;;;;;;;13.52;10.32;;;15.40;99.90;;;;;;5984252;23;20413;-93
2022/10/05 02:05:36;;;;;;;13.93;10.43;;;15.40;99.90;;;;;;6010373;23;20023;-93
2022/10/05 02:08:11;;;;;;;15.27;10.65;;;15.40;99.90;;;;;;5985982;23;20011;-92
2022/10/05 02:10:43;;;;;;;15.13;10.70;;;15.40;99.90;;;;;;5985663;23;20015;-94
2022/10/05 02:13:13;;;;;;;14.77;11.07;;;15.40;99.90;;;;;;6010360;23;20023;-93
2022/10/05 02:15:47;;;;;;;15.43;11.07;;;15.40;99.90;;;;;;6007284;23;20345;-94
2022/10/05 02:18:18;;;;;;;13.98;10.55;;;15.40;99.90;;;;;;6008106;23;20339;-93
2022/10/05 02:20:45;;;;;;;14.65;11.07;;;15.40;99.90;;;;;;6007259;23;20019;-92
2022/10/05 02:23:18;;;;;;;14.82;10.60;;;15.40;99.90;;;;;;6010113;23;20016;-92
2022/10/05 02:25:46;;;;;;;14.18;10.77;;;15.30;99.90;;;;;;6006523;23;20047;-93
2022/10/05 02:28:41;;;;;;;16.25;10.77;;;15.30;99.90;;;;;;6008867;23;20099;-94
2022/10/05 02:31:13;;;;;;;14.85;10.80;;;15.30;99.90;;;;;;5982601;23;20024;-93
2022/10/05 02:33:39;;;;;;;13.30;10.10;;;15.30;99.90;;;;;;5985433;23;20012;-94
2022/10/05 02:36:28;;;;;;;14.20;10.43;;;15.30;99.90;;;;;;5983960;23;20468;-92
2022/10/05 02:39:31;;;;;;;14.80;10.10;;;15.30;99.90;;;;;;5984293;23;20091;-92
2022/10/05 02:42:12;;;;;;;13.68;10.13;;;15.20;99.90;;;;;;6006930;23;20015;-92
2022/10/05 02:44:44;;;;;;;14.52;9.93;;;15.20;99.90;;;;;;6007782;23;20016;-92
2022/10/05 02:47:34;;;;;;;14.75;10.52;;;15.20;99.90;;;;;;6031625;23;20015;-93
2022/10/05 02:50:08;;;;;;;13.52;10.55;;;15.20;99.90;;;;;;6007390;23;20026;-92
2022/10/05 02:52:44;;;;;;;13.13;9.80;;;15.20;99.90;;;;;;5983693;23;20020;-94
2022/10/05 02:55:48;;;;;;;14.35;9.88;;;15.30;99.90;;;;;;6007481;23;20072;-92
2022/10/05 02:58:22;;;;;;;12.82;9.57;;;15.20;99.90;;;;;;6006280;23;20023;-92
2022/10/05 03:00:58;;;;;;;13.55;9.38;;;15.20;99.90;;;;;;6007043;23;20016;-93
2022/10/05 03:03:49;;;;;;;13.80;9.52;;;15.20;99.90;;;;;;6030071;23;20067;-92
2022/10/05 03:06:21;;;;;;;12.80;9.90;;;15.20;99.90;;;;;;6006880;23;20055;-92
2022/10/05 03:09:08;;;;;;;14.57;10.55;;;15.20;99.90;;;;;;6007362;23;20252;-94
2022/10/05 03:11:36;;;;;;;14.20;9.40;;;15.20;99.90;;;;;;5982400;23;20087;-93
2022/10/05 03:14:14;;;;;;;14.60;9.93;;;15.20;99.90;;;;;;6007075;23;20020;-92
2022/10/05 03:16:47;;;;;;;13.57;10.10;;;15.20;99.90;;;;;;6008335;23;20027;-95
2022/10/05 03:19:21;;;;;;;13.77;10.10;;;15.20;99.90;;;;;;5983846;23;20022;-94
2022/10/05 03:22:13;;;;;;;11.43;9.10;;;15.20;99.90;;;;;;5983447;23;20023;-91
2022/10/05 03:25:14;;;;;;;13.27;9.48;;;15.20;99.90;;;;;;6029514;23;20016;-93
2022/10/05 03:28:22;;;;;;;13.10;9.35;;;15.20;99.90;;;;;;5983083;23;20071;-93
2022/10/05 03:31:01;;;;;;;12.70;9.10;;;15.20;99.90;;;;;;5898432;24;20095;-93
2022/10/05 03:33:29;;;;;;;13.75;9.65;;;15.20;99.90;;;;;;5900081;24;20021;-94
2022/10/05 03:36:21;;;;;;;12.73;9.40;;;15.20;99.90;;;;;;5920809;24;20132;-94
2022/10/05 03:39:16;;;;;;;13.38;9.18;;;15.20;99.90;;;;;;5922288;24;20017;-94
2022/10/05 03:41:46;;;;;;;12.18;9.27;;;15.10;99.90;;;;;;5899664;24;20013;-93
2022/10/05 03:44:38;;;;;;;12.85;9.02;;;15.10;99.90;;;;;;5899195;24;20089;-93
2022/10/05 03:47:06;;;;;;;13.80;9.55;;;15.10;99.90;;;;;;5899495;24;20367;-93
2022/10/05 03:49:48;;;;;;;14.18;10.25;;;15.10;99.90;;;;;;5899227;24;20025;-92
2022/10/05 03:52:22;;;;;;;13.90;9.70;;;15.10;99.90;;;;;;5899028;24;20020;-93
2022/10/05 03:54:58;;;;;;;14.02;10.23;;;15.10;99.90;;;;;;5898450;24;20021;-93
2022/10/05 03:57:32;;;;;;;14.63;9.95;;;15.10;99.90;;;;;;5921492;24;20052;-91
2022/10/05 04:00:16;;;;;;;13.82;9.52;;;15.10;99.90;;;;;;5899334;24;20021;-92
2022/10/05 04:02:49;;;;;;;14.20;9.77;;;15.00;99.90;;;;;;5920943;24;20017;-92
2022/10/05 04:05:20;;;;;;;12.73;9.60;;;15.00;99.90;;;;;;6000680;23;20399;-92
2022/10/05 04:08:05;;;;;;;14.35;9.45;;;15.10;99.90;;;;;;6006217;23;20110;-91
2022/10/05 04:10:45;;;;;;;12.07;9.57;;;15.10;99.90;;;;;;6007846;23;20088;-91
2022/10/05 04:13:38;;;;;;;13.95;9.48;;;15.10;99.90;;;;;;6006025;23;20008;-94
2022/10/05 04:16:35;;;;;;;13.95;9.95;;;15.00;99.90;;;;;;5982056;23;20477;-92
2022/10/05 04:19:23;;;;;;;14.93;10.52;;;15.00;99.90;;;;;;5985238;23;20411;-94
2022/10/05 04:21:56;;;;;;;12.52;9.95;;;15.00;99.90;;;;;;5993266;23;20454;-95
2022/10/05 04:24:48;;;;;;;12.82;10.15;;;15.00;99.90;;;;;;6006360;23;20067;-92
2022/10/05 04:27:34;;;;;;;14.05;11.02;;;15.00;99.90;;;;;;5983749;23;20481;-93
2022/10/05 04:30:21;;;;;;;13.90;10.13;;;15.00;99.90;;;;;;6005895;23;20084;-92
2022/10/05 04:32:53;;;;;;;13.55;9.98;;;15.00;99.90;;;;;;6008518;23;20064;-93
2022/10/05 04:35:28;;;;;;;15.68;10.18;;;15.00;99.90;;;;;;6008480;23;20012;-94
2022/10/05 04:37:54;;;;;;;14.32;9.98;;;15.00;99.90;;;;;;5983216;23;20103;-92
2022/10/05 04:40:50;;;;;;;13.43;10.15;;;15.00;99.90;;;;;;5983207;23;20391;-92
2022/10/05 04:43:39;;;;;;;14.98;10.95;;;15.00;99.90;;;;;;6006954;23;20087;-93
2022/10/05 04:46:27;;;;;;;13.02;10.57;;;15.00;99.90;;;;;;6006113;23;20015;-94
2022/10/05 04:49:01;;;;;;;13.43;10.80;;;15.00;99.90;;;;;;5983305;23;20015;-92
2022/10/05 04:51:39;;;;;;;14.02;11.00;;;14.90;99.90;;;;;;6006364;23;20028;-93
2022/10/05 04:54:27;;;;;;;15.50;11.52;;;14.90;99.90;;;;;;6007280;23;20012;-93
2022/10/05 04:56:58;;;;;;;15.02;11.45;;;14.90;99.90;;;;;;6007170;23;20020;-93
2022/10/05 04:59:42;;;;;;;14.52;11.30;;;14.90;99.90;;;;;;5981640;23;20011;-93
2022/10/05 05:02:37;;;;;;;15.23;11.40;;;14.90;99.90;;;;;;5984896;23;20016;-92
2022/10/05 05:05:42;;;;;;;15.18;12.00;;;14.80;99.90;;;;;;6008117;23;20026;-94
2022/10/05 05:08:10;;;;;;;14.93;11.13;;;14.80;99.90;;;;;;6010157;23;20484;-93
2022/10/05 05:10:42;;;;;;;14.07;11.98;;;14.80;99.90;;;;;;6007830;23;20020;-94
2022/10/05 05:13:29;;;;;;;16.38;11.57;;;14.80;99.90;;;;;;5983276;23;20102;-93
2022/10/05 05:16:03;;;;;;;16.88;12.23;;;14.80;99.90;;;;;;5982601;23;20342;-93
2022/10/05 05:18:53;;;;;;;15.70;12.00;;;14.70;99.90;;;;;;5985257;23;20453;-95
2022/10/05 05:21:41;;;;;;;15.93;12.52;;;14.70;99.90;;;;;;5983475;23;20020;-93
2022/10/05 05:24:37;;;;;;;16.52;12.27;;;14.70;99.90;;;;;;6007462;23;20019;-92
2022/10/05 05:27:28;;;;;;;14.30;12.13;;;14.70;99.90;;;;;;6009920;23;20019;-92
2022/10/05 05:30:06;;;;;;;16.27;12.60;;;14.60;99.90;;;;;;6015972;23;20015;-96
2022/10/05 05:32:43;;;;;;;16.50;12.80;;;14.60;99.90;;;;;;6001895;23;20020;-95
2022/10/05 05:35:55;;;;;;;17.42;12.88;;;14.60;99.90;;;;;;6008895;23;20031;-94
2022/10/05 05:38:23;;;;;;;15.05;12.82;;;14.60;99.90;;;;;;6028184;23;20026;-93
2022/10/05 05:41:09;;;;;;;18.15;13.43;;;14.60;99.90;;;;;;5985782;23;20019;-94
2022/10/05 05:43:46;;;;;;;17.65;13.68;;;14.60;99.90;;;;;;5985355;23;20028;-94
2022/10/05 05:46:36;;;;;;;18.58;13.70;;;14.60;99.90;;;;;;5985754;23;20019;-93
2022/10/05 05:49:45;;;;;;;19.08;12.77;;;14.60;99.90;;;;;;5985655;23;20016;-95
2022/10/05 05:52:26;;;;;;;17.27;12.93;;;14.70;99.90;;;;;;6009723;23;20044;-94
2022/10/05 05:55:14;;;;;;;16.80;13.07;;;14.60;99.90;;;;;;5984465;23;20015;-95
2022/10/05 05:57:49;;;;;;;15.27;13.30;;;14.60;99.90;;;;;;6008792;23;20066;-93
2022/10/05 06:00:22;;;;;;;16.70;12.93;;;14.60;99.90;;;;;;6007234;23;20019;-93
2022/10/05 06:02:51;;;;;;;16.73;12.95;;;14.60;99.90;;;;;;5985460;23;20094;-93
2022/10/05 06:05:45;;;;;;;16.67;13.60;;;14.70;99.90;;;;;;6009094;23;20031;-95
2022/10/05 06:08:29;;;;;;;17.48;13.75;;;14.70;99.90;;;;;;6009242;23;20075;-95
2022/10/05 06:11:00;;;;;;;18.30;13.38;;;14.60;99.90;;;;;;5985276;23;20091;-95
2022/10/05 06:13:34;;;;;;;18.15;13.95;;;14.70;99.90;;;;;;6009386;23;20079;-95
2022/10/05 06:16:24;;;;;;;17.98;13.95;;;14.70;99.90;;;;;;6008043;23;20362;-94
2022/10/05 06:18:56;;;;;;;17.23;13.98;;;14.70;99.90;;;;;;6013578;23;20060;-93
2022/10/05 06:21:48;;;;;;;17.83;14.10;;;14.70;99.90;;;;;;6009245;23;20023;-91
2022/10/05 06:24:28;;;;;;;16.02;13.57;;;14.70;99.90;;;;;;5985135;23;20102;-94
2022/10/05 06:27:26;;;;;;;17.00;14.27;;;14.70;99.90;;;;;;6007117;23;20070;-94
2022/10/05 06:30:08;;;;;;;17.20;14.10;;;14.70;99.90;;;;;;6008259;23;20044;-94
2022/10/05 06:32:49;;;;;;;16.55;13.52;;;14.70;99.90;;;;;;5980845;23;20063;-91
2022/10/05 06:35:39;;;;;;;16.10;13.60;;;14.70;99.90;;;;;;6008326;23;20027;-92
2022/10/05 06:38:14;;;;;;;18.80;14.83;;;14.70;99.90;;;;;;5983895;23;20016;-93
2022/10/05 06:41:10;;;;;;;16.67;13.65;;;14.70;99.90;;;;;;5984780;23;20304;-94
2022/10/05 06:43:39;;;;;;;16.25;13.60;;;14.70;99.90;;;;;;6008955;23;20110;-93
2022/10/05 06:46:35;;;;;;;15.77;13.75;;;14.80;99.90;;;;;;5983928;23;20099;-91
2022/10/05 06:49:24;;;;;;;15.23;13.20;;;14.80;99.90;;;;;;5984610;23;20020;-93
2022/10/05 06:52:11;;;;;;;16.83;13.80;;;14.80;99.90;;;;;;6012360;23;20024;-94
2022/10/05 06:54:42;;;;;;;17.98;14.07;;;14.80;99.90;;;;;;5983594;23;20030;-94
2022/10/05 06:57:32;;;;;;;16.93;13.90;;;14.80;99.90;;;;;;5985229;23;20358;-91
2022/10/05 07:00:21;;;;;;;15.63;13.20;;;14.80;99.90;;;;;;6008684;23;20054;-95
2022/10/05 07:03:12;;;;;;;17.08;13.63;;;14.80;99.90;;;;;;5983307;23;20016;-93
2022/10/05 07:05:37;;;;;;;;;;;14.70;99.90;;;;;;6009956;23;20086;-93
2022/10/05 07:08:09;;;;;;;15.60;13.25;;;14.80;99.90;;;;;;5983968;23;19918;-93
2022/10/05 07:10:50;;;;;;;15.63;13.32;;;14.80;99.90;;;;;;5984428;23;20027;-94
2022/10/05 07:13:50;;;;;;;16.08;12.98;;;14.80;99.90;;;;;;5983438;23;20018;-93
2022/10/05 07:16:30;;;;;;;14.38;12.63;;;14.90;99.90;;;;;;5988278;23;20019;-95
2022/10/05 07:19:12;;;;;;;15.60;13.02;;;14.90;99.90;;;;;;5986907;23;20040;-95
2022/10/05 07:21:51;;;;;;;15.55;12.90;;;15.00;99.90;;;;;;6011132;23;20019;-94
2022/10/05 07:24:33;;;;;;;14.90;12.40;;;15.00;99.90;;;;;;5985239;23;20029;-91
2022/10/05 07:27:14;;;;;;;15.48;12.77;;;15.00;99.90;;;;;;6008488;23;20012;-91
2022/10/05 07:30:08;;;;;;;13.40;11.98;;;15.00;99.90;;;;;;5984870;23;20015;-94
2022/10/05 07:32:58;;;;;;;14.02;11.82;;;15.10;99.90;;;;;;6008126;23;20023;-91
2022/10/05 07:38:52;;;;;;;13.57;11.27;;;15.20;99.90;;;;;;6007438;23;20019;-92
2022/10/05 07:41:50;;;;;;;13.20;11.18;;;15.20;99.90;;;;;;6009824;23;20067;-94
2022/10/05 07:44:15;;;;;;;16.25;11.27;;;15.20;99.90;;;;;;5984049;23;20020;-90
2022/10/05 07:47:00;;;;;;;14.15;10.68;;;15.30;99.90;;;;;;6008355;23;20020;-92
2022/10/05 07:50:02;;;;;;;13.02;10.32;;;15.30;99.90;;;;;;6007864;23;20023;-90
2022/10/05 07:52:43;;;;;;;13.15;10.73;;;15.30;99.90;;;;;;6002842;23;20020;-92
2022/10/05 07:55:24;;;;;;;13.93;10.00;;;15.30;99.90;;;;;;6008318;23;20011;-92
2022/10/05 07:58:31;;;;;;;14.20;10.65;;;15.40;99.90;;;;;;6008848;23;20031;-91
2022/10/05 08:01:26;;;;;;;12.95;10.90;;;15.40;99.90;;;;;;5982857;23;20098;-92
2022/10/05 08:04:00;;;;;;;12.68;10.15;;;15.40;99.90;;;;;;6007855;23;20142;-92
2022/10/05 08:06:26;;;;;;;12.25;10.52;;;15.40;99.90;;;;;;5985042;23;20015;-93
2022/10/05 08:09:25;;;;;;;12.20;10.50;;;15.50;99.90;;;;;;6007842;23;20145;-93
2022/10/05 08:12:11;;;;;;;12.32;9.90;;;15.60;99.90;;;;;;5984346;23;20412;-94
2022/10/05 08:15:09;;;;;;;11.93;10.25;;;15.60;99.90;;;;;;6007268;23;20015;-94
2022/10/05 08:17:37;;;;;;;13.23;10.27;;;15.70;99.90;;;;;;5977861;23;20032;-93
2022/10/05 08:20:14;;;;;;;11.90;9.80;;;15.70;99.90;;;;;;5984270;23;20035;-92
2022/10/05 08:22:49;;;;;;;12.60;9.05;;;15.70;99.90;;;;;;5984855;23;20087;-93
2022/10/05 08:25:44;;;;;;;12.55;9.13;;;15.80;99.90;;;;;;6007809;23;20023;-93
2022/10/05 08:28:28;;;;;;;12.10;9.35;;;15.80;99.90;;;;;;5975675;23;20120;-92
2022/10/05 08:31:06;;;;;;;12.57;9.18;;;15.80;99.90;;;;;;6007894;23;20024;-92
2022/10/05 08:33:50;;;;;;;13.35;9.38;;;15.90;99.90;;;;;;6031802;23;20011;-92
2022/10/05 08:36:42;;;;;;;11.30;8.70;;;15.90;99.90;;;;;;6010317;23;20050;-94
2022/10/05 08:39:17;;;;;;;13.73;9.32;;;15.90;99.90;;;;;;6034701;23;20008;-94
2022/10/05 08:42:10;;;;;;;11.73;8.27;;;16.00;99.90;;;;;;6012096;23;20016;-93
2022/10/05 08:44:54;;;;;;;12.00;8.70;;;16.00;99.90;;;;;;6011481;23;20055;-93
2022/10/05 08:47:38;;;;;;;11.25;8.65;;;16.00;99.90;;;;;;5987659;23;20016;-91
2022/10/05 08:50:18;;;;;;;11.18;8.77;;;16.00;99.90;;;;;;6012215;23;20030;-92
2022/10/05 08:53:16;;;;;;;10.75;8.70;;;16.10;99.90;;;;;;5986352;23;20709;-91
2022/10/05 08:56:20;;;;;;;11.50;8.65;;;16.10;99.90;;;;;;5986891;23;20015;-92
2022/10/05 08:59:07;;;;;;;10.65;8.02;;;16.10;99.90;;;;;;6004955;23;20107;-94
2022/10/05 09:02:03;;;;;;;11.45;7.95;;;16.20;99.90;;;;;;5986577;23;20108;-91
2022/10/05 09:04:46;;;;;;;10.73;7.18;;;16.20;99.90;;;;;;6011553;23;20012;-93
2022/10/05 09:07:39;;;;;;;10.25;7.75;;;16.20;99.90;;;;;;5988041;23;20230;-95
2022/10/05 09:10:23;;;;;;;10.02;7.05;;;16.20;99.90;;;;;;6012861;23;20690;-92
2022/10/05 09:13:01;;;;;;;9.20;7.28;;;16.30;99.90;;;;;;6018805;23;20043;-95
2022/10/05 09:15:41;;;;;;;9.68;7.28;;;16.30;99.90;;;;;;5988816;23;20020;-93
2022/10/05 09:18:38;;;;;;;10.00;6.60;;;16.40;99.90;;;;;;6011068;23;20030;-94
2022/10/05 09:21:14;;;;;;;10.05;6.75;;;16.40;99.90;;;;;;6035216;23;20106;-93
2022/10/05 09:23:42;;;;;;;9.85;6.60;;;16.40;99.90;;;;;;5987511;23;20051;-95
2022/10/05 09:26:55;;;;;;;9.23;6.68;;;16.40;99.90;;;;;;6011963;23;20446;-94
2022/10/05 09:29:37;;;;;;;9.40;6.57;;;16.40;99.90;;;;;;6012922;23;20043;-96
2022/10/05 09:32:30;;;;;;;8.50;6.32;;;16.50;99.90;;;;;;6017043;23;20023;-94
2022/10/05 09:35:20;;;;;;;8.38;5.82;;;16.40;99.90;;;;;;6014725;23;20019;-94
2022/10/05 09:38:14;;;;;;;9.85;5.95;;;16.50;99.90;;;;;;5989545;23;20434;-96
2022/10/05 09:41:08;;;;;;;8.07;5.40;;;16.50;99.90;;;;;;6011344;23;20331;-94
2022/10/05 09:43:55;;;;;;;8.95;5.90;;;16.50;99.90;;;;;;5988438;23;20027;-95
2022/10/05 09:46:35;;;;;;;8.27;5.22;;;16.60;99.90;;;;;;6013441;23;20004;-96
2022/10/05 09:49:10;;;;;;;11.68;6.82;;;16.60;99.90;;;;;;6014381;23;20020;-96
2022/10/05 09:52:21;;;;;;;10.77;5.80;;;16.60;99.90;;;;;;6012976;23;20064;-96
2022/10/05 09:54:50;;;;;;;9.50;6.43;;;16.70;99.90;;;;;;6036273;23;20012;-95
2022/10/05 09:57:33;;;;;;;10.98;6.60;;;16.70;99.90;;;;;;5986524;23;20030;-95
2022/10/05 10:00:20;;;;;;;10.40;6.65;;;16.70;99.90;;;;;;6012343;23;20020;-96
2022/10/05 10:03:08;;;;;;;9.23;6.38;;;16.70;99.90;;;;;;6032792;23;20019;-94
2022/10/05 10:05:38;;;;;;;9.80;6.93;;;16.70;99.90;;;;;;5985728;23;20692;-96
2022/10/05 10:08:25;;;;;;;9.57;6.65;;;16.70;99.90;;;;;;5986628;23;20066;-95
2022/10/05 10:11:15;;;;;;;11.13;7.30;;;16.60;99.90;;;;;;5986738;23;20027;-94
2022/10/05 10:14:15;;;;;;;11.30;7.43;;;16.70;99.90;;;;;;6009352;23;20030;-94
2022/10/05 10:17:11;;;;;;;10.23;7.05;;;16.60;99.90;;;;;;5996677;23;20030;-95
2022/10/05 10:20:04;;;;;;;11.27;6.88;;;16.60;99.90;;;;;;6014015;23;20107;-94
2022/10/05 10:23:14;;;;;;;10.05;7.03;;;16.60;99.90;;;;;;6035458;23;20063;-96
2022/10/05 10:25:59;;;;;;;11.23;6.90;;;16.60;99.90;;;;;;6012917;23;20019;-96
2022/10/05 10:29:07;;;;;;;10.52;6.95;;;16.70;99.90;;;;;;5991451;23;20012;-96
2022/10/05 10:31:54;;;;;;;10.13;6.50;;;16.70;99.90;;;;;;5987474;23;20071;-96
2022/10/05 10:34:57;;;;;;;8.55;6.65;;;16.70;99.90;;;;;;5986682;23;20012;-96
2022/10/05 10:37:36;;;;;;;9.20;6.38;;;16.70;99.90;;;;;;6012012;23;20052;-96
2022/10/05 10:40:41;;;;;;;10.45;6.90;;;16.80;99.90;;;;;;6011096;23;20446;-96
2022/10/05 10:43:28;;;;;;;9.45;6.80;;;16.80;99.90;;;;;;6010985;23;20019;-96
2022/10/05 10:46:14;;;;;;;9.40;6.80;;;16.80;99.90;;;;;;6033905;23;20026;-96
2022/10/05 10:49:22;;;;;;;8.80;6.28;;;16.80;99.90;;;;;;6011335;23;20023;-94
2022/10/05 10:52:06;;;;;;;8.70;6.40;;;16.80;99.90;;;;;;6013573;23;20023;-94
2022/10/05 10:54:53;;;;;;;8.90;6.65;;;16.80;99.90;;;;;;6011816;23;20338;-95
2022/10/05 10:57:34;;;;;;;9.10;6.13;;;16.90;99.90;;;;;;6010518;23;20375;-96
2022/10/05 11:00:14;;;;;;;8.10;6.05;;;17.00;99.90;;;;;;6009006;23;20374;-95
2022/10/05 11:02:58;;;;;;;7.70;5.63;;;16.90;99.90;;;;;;5985951;23;20051;-95
2022/10/05 11:06:00;;;;;;;8.32;5.97;;;17.00;99.90;;;;;;6010747;23;20075;-95
2022/10/05 11:08:45;;;;;;;;;;;17.00;99.90;;;;;;5986146;23;20035;-93
2022/10/05 11:11:49;;;;;;;7.75;6.03;;;17.00;99.90;;;;;;6009818;23;20387;-96
2022/10/05 11:14:30;;;;;;;8.25;6.43;;;17.00;99.90;;;;;;6010074;23;20022;-95
2022/10/05 11:17:20;;;;;;;8.48;6.15;;;17.00;99.90;;;;;;5984908;23;20129;-95
2022/10/05 11:20:17;;;;;;;9.43;5.88;;;17.10;99.90;;;;;;6010542;23;20030;-96
2022/10/05 11:23:26;;;;;;;7.18;4.55;;;17.10;99.90;;;;;;6011120;23;20022;-96
2022/10/05 11:26:26;;;;;;;8.00;4.70;;;17.20;99.90;;;;;;6008286;23;20019;-95
2022/10/05 11:28:59;;;;;;;9.45;5.00;;;17.20;99.90;;;;;;6010201;23;20391;-96
2022/10/05 11:31:31;;;;;;;7.07;4.28;;;17.30;99.90;;;;;;6018049;23;20031;-96
2022/10/05 11:34:20;;;;;;;12.80;4.90;;;17.30;99.90;;;;;;6014972;23;20099;-94
2022/10/05 11:37:11;;;;;;;7.57;4.53;;;17.30;99.90;;;;;;5992211;23;20019;-95
2022/10/05 11:40:09;;;;;;;;;;;17.30;99.90;;;;;;6017856;23;20023;-96
2022/10/05 11:43:12;;;;;;;8.02;4.40;;;17.20;99.90;;;;;;5869455;24;19983;-93
2022/10/05 11:45:59;;;;;;;7.82;4.72;;;17.30;99.90;;;;;;5875032;24;20097;-96
2022/10/05 11:48:36;;;;;;;7.45;4.32;;;17.30;99.90;;;;;;5896832;24;20055;-93
2022/10/05 11:51:32;;;;;;;7.93;4.85;;;17.30;99.90;;;;;;5852628;24;20029;-96
2022/10/05 11:54:11;;;;;;;8.18;4.50;;;17.30;99.90;;;;;;5897471;24;20073;-94
2022/10/05 11:56:55;;;;;;;8.85;4.60;;;17.30;99.90;;;;;;5852048;24;20074;-95
2022/10/05 11:59:39;;;;;;;8.43;5.05;;;17.30;99.90;;;;;;5874637;24;20078;-95
2022/10/05 12:02:35;;;;;;;7.50;4.65;;;17.20;99.90;;;;;;5873875;24;20083;-95
2022/10/05 12:05:21;;;;;;;8.57;5.20;;;17.20;99.90;;;;;;5901015;24;20013;-96
2022/10/05 12:08:14;;;;;;;9.68;4.80;;;17.20;99.90;;;;;;5881580;24;20078;-96
2022/10/05 12:10:59;;;;;;;8.32;4.57;;;17.20;99.90;;;;;;5882270;24;20017;-95
2022/10/05 13:56:40;;;;;;;7.28;4.40;;;18.10;99.90;;;;;;6008516;23;20031;-94
2022/10/05 13:59:06;;;;;;;8.02;4.45;;;18.10;99.90;;;;;;6007868;23;20375;-95
2022/10/05 14:01:51;;;;;;;9.18;4.20;;;18.10;99.90;;;;;;6011278;23;20035;-94
2022/10/05 14:04:48;;;;;;;8.68;4.43;;;18.10;99.90;;;;;;6010717;23;20015;-95
2022/10/05 14:07:35;;;;;;;8.27;3.83;;;18.10;99.90;;;;;;6008988;23;20024;-95
2022/10/05 14:10:03;;;;;;;9.95;3.80;;;18.10;99.90;;;;;;6008825;23;20016;-93
2022/10/05 14:12:39;;;;;;;7.18;4.18;;;18.10;99.90;;;;;;6009278;23;20016;-94
2022/10/05 14:15:33;;;;;;;8.77;4.80;;;18.10;99.90;;;;;;6008865;23;20402;-95
2022/10/05 14:17:59;;;;;;;7.93;5.05;;;18.10;99.90;;;;;;6009542;23;20020;-96
2022/10/05 14:20:30;;;;;;;9.68;4.35;;;18.10;99.90;;;;;;6009738;23;20038;-94
2022/10/05 14:23:12;;;;;;;7.50;4.38;;;18.10;99.90;;;;;;6009886;23;20027;-92
2022/10/05 14:25:52;;;;;;;7.55;4.20;;;18.10;99.90;;;;;;6012019;23;20027;-95
2022/10/05 14:28:30;;;;;;;7.65;4.10;;;18.10;99.90;;;;;;6009537;23;20031;-95
2022/10/05 14:31:02;;;;;;;7.72;3.72;;;18.10;99.90;;;;;;6010207;23;20439;-96
2022/10/05 14:33:33;;;;;;;8.73;4.43;;;18.20;99.90;;;;;;6036889;23;20003;-95
2022/10/05 14:36:00;;;;;;;6.82;4.00;;;18.10;99.90;;;;;;6016892;23;20016;-96
2022/10/05 14:38:28;;;;;;;7.88;3.92;;;18.20;99.90;;;;;;6019659;23;20035;-96
2022/10/05 14:41:14;;;;;;;7.90;3.83;;;18.20;99.90;;;;;;6009286;23;20472;-92
2022/10/05 14:43:52;;;;;;;6.72;3.40;;;18.20;99.90;;;;;;6030164;23;20016;-90
2022/10/05 14:46:17;;;;;;;7.70;3.80;;;18.20;99.90;;;;;;6009999;23;20011;-93
2022/10/05 14:48:45;;;;;;;7.70;3.58;;;18.10;99.90;;;;;;5983897;23;20089;-93
2022/10/05 14:51:27;;;;;;;7.97;3.97;;;18.10;99.90;;;;;;6007948;23;20012;-92
2022/10/05 14:54:01;;;;;;;7.20;3.47;;;18.20;99.90;;;;;;6006745;23;20028;-95
2022/10/05 14:56:44;;;;;;;6.82;3.42;;;18.20;99.90;;;;;;6005801;23;20020;-92
2022/10/05 14:59:32;;;;;;;6.60;3.60;;;18.20;99.90;;;;;;6011471;23;20067;-95
2022/10/05 15:02:27;;;;;;;8.85;3.80;;;18.20;99.90;;;;;;6007433;23;20090;-93
2022/10/05 15:04:55;;;;;;;8.52;3.70;;;18.20;99.90;;;;;;6009245;23;20075;-94
2022/10/05 15:07:29;;;;;;;7.43;3.80;;;18.20;99.90;;;;;;6007875;23;20015;-93
2022/10/05 15:10:28;;;;;;;7.65;3.97;;;18.10;99.90;;;;;;6009237;23;20028;-95
2022/10/05 15:12:59;;;;;;;7.07;3.42;;;18.10;99.90;;;;;;6009957;23;20027;-96
2022/10/05 15:15:39;;;;;;;10.88;4.00;;;18.10;99.90;;;;;;6032650;23;20099;-95
2022/10/05 15:18:30;;;;;;;8.27;3.85;;;18.10;99.90;;;;;;5984633;23;20437;-92
2022/10/05 15:21:11;;;;;;;7.50;3.83;;;18.10;99.90;;;;;;6010635;23;20023;-94
2022/10/05 15:23:39;;;;;;;7.28;3.65;;;18.10;99.90;;;;;;6009165;23;20011;-96
2022/10/05 15:26:11;;;;;;;8.05;3.67;;;18.00;99.90;;;;;;6008840;23;20051;-95
2022/10/05 15:28:55;;;;;;;9.35;3.90;;;18.10;99.90;;;;;;5990751;23;20016;-96
2022/10/05 15:31:50;;;;;;;8.55;3.83;;;18.00;99.90;;;;;;6013913;23;20383;-94
2022/10/05 15:34:37;;;;;;;7.47;3.80;;;18.00;99.90;;;;;;6010841;23;20016;-95
2022/10/05 15:37:14;;;;;;;7.65;3.78;;;18.00;99.90;;;;;;6038981;23;20542;-93
2022/10/05 15:39:53;;;;;;;10.00;4.25;;;18.00;99.90;;;;;;5989586;23;20076;-93
2022/10/05 15:42:28;;;;;;;7.50;4.40;;;18.00;99.90;;;;;;6008058;23;20023;-94
2022/10/05 15:45:18;;;;;;;8.48;4.20;;;18.00;99.90;;;;;;6006653;23;20020;-93